createdAt,value
2022-09-09T00:04:30.190Z,17.41
2022-09-09T00:09:49.816Z,17.38
2022-09-09T00:15:01.662Z,17.37
2022-09-09T00:21:00.568Z,17.41
2022-09-09T00:26:16.786Z,17.38
2022-09-09T00:31:28.980Z,17.30
2022-09-09T00:36:38.349Z,17.22
2022-09-09T00:41:58.507Z,17.16
2022-09-09T00:47:19.832Z,17.11
2022-09-09T00:52:38.748Z,17.05
2022-09-09T00:57:47.382Z,17.01
2022-09-09T01:03:05.048Z,16.99
2022-09-09T01:08:22.890Z,16.96
2022-09-09T01:13:32.722Z,16.94
2022-09-09T01:18:43.043Z,16.91
2022-09-09T01:24:16.194Z,16.91
2022-09-09T01:29:25.509Z,16.89
2022-09-09T01:34:39.594Z,16.87
2022-09-09T01:39:47.321Z,16.86
2022-09-09T01:44:55.491Z,16.84
2022-09-09T01:50:03.897Z,16.82
2022-09-09T01:55:15.314Z,16.78
2022-09-09T02:00:22.207Z,16.76
2022-09-09T02:05:38.139Z,16.73
2022-09-09T02:10:53.028Z,16.67
2022-09-09T02:16:09.297Z,16.63
2022-09-09T02:21:19.344Z,16.58
2022-09-09T02:26:28.369Z,16.54
2022-09-09T02:31:38.112Z,16.49
2022-09-09T02:36:46.717Z,16.44
2022-09-09T02:41:53.948Z,16.37
2022-09-09T02:47:18.363Z,16.29
2022-09-09T02:52:35.106Z,16.23
2022-09-09T02:57:41.639Z,16.20
2022-09-09T03:02:48.785Z,16.20
2022-09-09T03:07:56.169Z,16.21
2022-09-09T03:13:03.488Z,16.27
2022-09-09T03:18:10.706Z,16.25
2022-09-09T03:23:18.101Z,16.21
2022-09-09T03:28:32.595Z,16.18
2022-09-09T03:33:39.848Z,16.19
2022-09-09T03:38:46.997Z,16.18
2022-09-09T03:43:54.000Z,16.16
2022-09-09T03:49:01.683Z,16.21
2022-09-09T03:54:09.646Z,16.19
2022-09-09T03:59:18.049Z,16.17
2022-09-09T04:04:25.326Z,16.14
2022-09-09T04:09:32.271Z,16.10
2022-09-09T04:14:40.576Z,16.08
2022-09-09T04:19:47.801Z,16.05
2022-09-09T04:24:54.945Z,16.02
2022-09-09T04:30:02.098Z,15.97
2022-09-09T04:35:10.080Z,15.93
2022-09-09T04:40:16.801Z,15.90
2022-09-09T04:45:23.803Z,15.92
2022-09-09T04:50:33.101Z,15.95
2022-09-09T04:55:39.962Z,15.98
2022-09-09T05:00:47.658Z,15.97
2022-09-09T05:05:55.143Z,15.99
2022-09-09T05:11:01.984Z,15.99
2022-09-09T05:16:12.458Z,15.97
2022-09-09T05:21:20.839Z,15.98
2022-09-09T05:26:27.754Z,16.00
2022-09-09T05:31:35.200Z,16.01
2022-09-09T05:36:42.779Z,16.03
2022-09-09T05:41:49.958Z,16.06
2022-09-09T05:46:57.447Z,16.10
2022-09-09T05:52:06.188Z,16.11
2022-09-09T05:57:13.293Z,16.11
2022-09-09T06:02:21.027Z,16.16
2022-09-09T06:07:28.202Z,16.23
2022-09-09T06:12:35.229Z,16.33
2022-09-09T06:17:43.322Z,16.43
2022-09-09T06:22:50.826Z,16.49
2022-09-09T06:27:58.042Z,16.56
2022-09-09T06:33:04.927Z,16.63
2022-09-09T06:38:11.716Z,16.72
2022-09-09T06:43:19.319Z,16.81
2022-09-09T06:48:27.777Z,16.87
2022-09-09T06:53:35.897Z,16.86
2022-09-09T06:58:44.213Z,16.91
2022-09-09T07:03:53.031Z,17.02
2022-09-09T07:09:01.898Z,17.10
2022-09-09T07:14:09.973Z,17.12
2022-09-09T07:19:17.749Z,17.17
2022-09-09T07:24:25.464Z,17.23
2022-09-09T07:29:32.766Z,17.31
2022-09-09T07:34:39.828Z,17.37
2022-09-09T07:39:46.758Z,17.39
2022-09-09T07:44:55.993Z,17.43
2022-09-09T07:50:03.297Z,17.53
2022-09-09T07:55:11.024Z,17.73
2022-09-09T08:00:20.617Z,17.96
2022-09-09T08:05:27.987Z,18.24
2022-09-09T08:10:34.953Z,18.51
2022-09-09T08:15:42.766Z,18.73
2022-09-09T08:20:49.497Z,18.93
2022-09-09T08:25:56.196Z,19.08
2022-09-09T08:31:11.689Z,19.19
2022-09-09T08:36:20.585Z,19.29
2022-09-09T08:41:43.388Z,19.41
2022-09-09T08:47:00.229Z,19.46
2022-09-09T08:53:31.342Z,19.37
2022-09-09T08:58:46.065Z,19.27
2022-09-09T09:04:02.769Z,19.26
2022-09-09T09:09:19.572Z,19.22
2022-09-09T09:19:37.915Z,19.36
2022-09-09T09:29:18.754Z,19.68
2022-09-09T09:34:30.460Z,19.83
2022-09-09T09:45:37.511Z,20.10
2022-09-09T09:50:56.010Z,20.21
2022-09-09T09:56:08.250Z,20.27
2022-09-09T10:01:23.890Z,20.27
2022-09-09T10:06:51.363Z,20.32
2022-09-09T10:12:23.324Z,20.37
2022-09-09T10:18:07.772Z,20.39
2022-09-09T10:23:35.334Z,20.47
2022-09-09T10:29:11.605Z,20.62
2022-09-09T10:34:44.223Z,20.77
2022-09-09T10:40:01.725Z,20.90
2022-09-09T10:45:36.457Z,20.99
2022-09-09T10:51:04.384Z,21.04
2022-09-09T10:56:33.821Z,21.00
2022-09-09T11:02:03.779Z,20.99
2022-09-09T11:07:22.828Z,21.00
2022-09-09T11:12:55.835Z,21.02
2022-09-09T11:18:51.199Z,21.06
2022-09-09T11:24:11.909Z,21.08
2022-09-09T11:30:56.172Z,21.07
2022-09-09T11:39:56.313Z,21.04
2022-09-09T11:45:23.178Z,21.13
2022-09-09T11:50:41.426Z,21.24
2022-09-09T11:55:49.565Z,21.36
2022-09-09T12:00:57.228Z,21.49
2022-09-09T12:06:16.066Z,21.60
2022-09-09T12:11:32.406Z,21.69
2022-09-09T12:16:41.607Z,21.81
2022-09-09T12:21:57.651Z,21.89
2022-09-09T12:27:14.367Z,21.92
2022-09-09T12:32:26.962Z,21.96
2022-09-09T12:37:38.529Z,22.02
2022-09-09T12:42:46.236Z,22.15
2022-09-09T12:47:58.009Z,22.26
2022-09-09T12:53:13.870Z,22.33
2022-09-09T12:58:22.817Z,22.37
2022-09-09T13:03:31.549Z,22.34
2022-09-09T13:08:39.504Z,22.29
2022-09-09T13:13:53.400Z,22.25
2022-09-09T13:19:02.654Z,22.26
2022-09-09T13:24:36.582Z,22.27
2022-09-09T13:29:53.676Z,22.26
2022-09-09T13:35:04.048Z,22.28
2022-09-09T13:40:23.988Z,22.32
2022-09-09T13:45:36.011Z,22.40
2022-09-09T13:53:51.203Z,22.44
2022-09-09T13:58:58.651Z,22.40
2022-09-09T14:04:07.693Z,22.42
2022-09-09T14:09:19.741Z,22.42
2022-09-09T14:14:27.092Z,22.43
2022-09-09T14:19:34.016Z,22.43
2022-09-09T14:24:40.930Z,22.39
2022-09-09T14:29:48.133Z,22.28
2022-09-09T14:34:55.309Z,22.18
2022-09-09T14:40:02.813Z,22.10
2022-09-09T14:45:11.808Z,22.08
2022-09-09T14:50:21.939Z,22.10
2022-09-09T14:55:30.364Z,22.11
2022-09-09T15:00:37.605Z,22.12
2022-09-09T15:05:44.615Z,22.16
2022-09-09T15:10:53.534Z,22.20
2022-09-09T15:16:08.238Z,22.19
2022-09-09T15:21:16.631Z,22.16
2022-09-09T15:26:24.053Z,22.17
2022-09-09T15:31:32.948Z,22.18
2022-09-09T15:36:41.432Z,22.15
2022-09-09T15:41:49.427Z,22.06
2022-09-09T15:46:56.947Z,21.97
2022-09-09T15:52:04.752Z,21.89
2022-09-09T15:57:13.515Z,21.84
2022-09-09T16:02:20.877Z,21.84
2022-09-09T16:07:27.794Z,21.85
2022-09-09T16:12:35.095Z,21.85
2022-09-09T16:17:41.985Z,21.81
2022-09-09T16:22:48.779Z,21.74
2022-09-09T16:27:56.298Z,21.65
2022-09-09T16:33:03.535Z,21.58
2022-09-09T16:38:11.330Z,21.48
2022-09-09T16:43:18.412Z,21.39
2022-09-09T16:48:25.399Z,21.30
2022-09-09T16:53:32.190Z,21.21
2022-09-09T16:58:40.499Z,21.12
2022-09-09T17:03:47.649Z,21.01
2022-09-09T17:09:00.372Z,20.87
2022-09-09T17:14:10.487Z,20.70
2022-09-09T17:19:18.067Z,20.49
2022-09-09T17:24:26.411Z,20.30
2022-09-09T17:29:33.424Z,20.18
2022-09-09T17:34:40.793Z,20.16
2022-09-09T17:39:48.908Z,20.13
2022-09-09T17:44:56.195Z,20.02
2022-09-09T17:50:03.576Z,19.89
2022-09-09T17:55:13.107Z,19.84
2022-09-09T18:00:21.340Z,19.82
2022-09-09T18:05:28.119Z,19.80
2022-09-09T18:10:35.612Z,19.78
2022-09-09T18:15:49.134Z,19.76
2022-09-09T18:21:06.722Z,19.74
2022-09-09T18:26:16.854Z,19.72
2022-09-09T18:31:25.749Z,19.70
2022-09-09T18:36:34.953Z,19.67
2022-09-09T18:41:43.781Z,19.65
2022-09-09T18:46:52.371Z,19.60
2022-09-09T18:51:59.830Z,19.56
2022-09-09T18:57:07.685Z,19.48
2022-09-09T19:02:15.057Z,19.38
2022-09-09T19:07:22.163Z,19.31
2022-09-09T19:12:29.302Z,19.23
2022-09-09T19:17:37.476Z,19.02
2022-09-09T19:22:44.485Z,18.83
2022-09-09T19:27:52.563Z,18.69
2022-09-09T19:32:59.716Z,18.61
2022-09-09T19:38:08.034Z,18.49
2022-09-09T19:43:15.341Z,18.38
2022-09-09T19:48:22.136Z,18.31
2022-09-09T19:53:29.456Z,18.21
2022-09-09T19:58:40.286Z,18.15
2022-09-09T20:03:49.361Z,18.10
2022-09-09T20:08:58.040Z,18.07
2022-09-09T20:14:04.998Z,18.09
2022-09-09T20:19:16.219Z,18.14
2022-09-09T20:24:24.216Z,18.18
2022-09-09T20:29:31.034Z,18.22
2022-09-09T20:34:38.186Z,18.26
2022-09-09T20:39:46.503Z,18.29
2022-09-09T20:44:53.657Z,18.30
2022-09-09T20:50:00.732Z,18.30
2022-09-09T20:55:09.375Z,18.31
2022-09-09T21:00:17.493Z,18.26
2022-09-09T21:05:25.663Z,18.21
2022-09-09T21:10:32.895Z,18.12
2022-09-09T21:15:42.451Z,18.10
2022-09-09T21:20:50.558Z,18.07
2022-09-09T21:25:57.925Z,18.04
2022-09-09T21:31:06.590Z,18.01
2022-09-09T21:36:15.641Z,17.98
2022-09-09T21:41:23.076Z,17.95
2022-09-09T21:46:30.139Z,17.92
2022-09-09T21:51:37.300Z,17.90
2022-09-09T21:56:45.750Z,17.91
2022-09-09T22:01:53.433Z,17.87
2022-09-09T22:07:00.408Z,17.83
2022-09-09T22:12:08.207Z,17.75
2022-09-09T22:17:15.763Z,17.64
2022-09-09T22:22:26.478Z,17.57
2022-09-09T22:27:33.763Z,17.56
2022-09-09T22:32:41.146Z,17.51
2022-09-09T22:37:48.508Z,17.48
2022-09-09T22:42:57.210Z,17.49
2022-09-09T22:48:05.209Z,17.48
2022-09-09T22:53:14.682Z,17.41
2022-09-09T22:58:22.529Z,17.38
2022-09-09T23:03:30.378Z,17.37
2022-09-09T23:08:38.545Z,17.29
2022-09-09T23:13:49.729Z,17.21
2022-09-09T23:18:56.951Z,17.19
2022-09-09T23:24:05.524Z,17.13
2022-09-09T23:29:14.790Z,17.08
2022-09-09T23:34:22.554Z,17.05
2022-09-09T23:39:29.756Z,17.03
2022-09-09T23:44:36.946Z,16.99
2022-09-09T23:49:44.668Z,16.92
2022-09-09T23:54:52.323Z,16.84
2022-09-09T23:59:59.172Z,16.85
